sensor_id;sensor_type;location;lat;lon;timestamp;pressure;altitude;pressure_sealevel;temperature;humidity
56514;BME280;62152;52.078;8.414;2023-11-22T00:02:26;101178.13;;;18.38;60.32
56514;BME280;62152;52.078;8.414;2023-11-22T00:06:27;101182.81;;;18.38;60.37
56514;BME280;62152;52.078;8.414;2023-11-22T00:10:28;101190.72;;;18.39;60.45
56514;BME280;62152;52.078;8.414;2023-11-22T00:14:31;101195.38;;;18.39;60.27
56514;BME280;62152;52.078;8.414;2023-11-22T00:18:32;101195.38;;;18.39;60.28
56514;BME280;62152;52.078;8.414;2023-11-22T00:22:32;101193.00;;;18.37;60.44
56514;BME280;62152;52.078;8.414;2023-11-22T00:26:33;101191.03;;;18.38;60.25
56514;BME280;62152;52.078;8.414;2023-11-22T00:30:37;101190.25;;;18.37;60.37
56514;BME280;62152;52.078;8.414;2023-11-22T00:34:38;101207.06;;;18.36;60.49
56514;BME280;62152;52.078;8.414;2023-11-22T00:38:38;101213.38;;;18.36;60.38
56514;BME280;62152;52.078;8.414;2023-11-22T00:42:40;101227.09;;;18.36;60.37
56514;BME280;62152;52.078;8.414;2023-11-22T00:46:45;101223.09;;;18.34;60.66
56514;BME280;62152;52.078;8.414;2023-11-22T00:50:45;101232.25;;;18.38;60.38
56514;BME280;62152;52.078;8.414;2023-11-22T00:54:46;101245.19;;;18.37;60.29
56514;BME280;62152;52.078;8.414;2023-11-22T00:58:47;101251.03;;;18.36;60.55
56514;BME280;62152;52.078;8.414;2023-11-22T01:02:50;101246.69;;;18.35;60.51
56514;BME280;62152;52.078;8.414;2023-11-22T01:06:51;101259.25;;;18.36;60.55
56514;BME280;62152;52.078;8.414;2023-11-22T01:10:52;101257.31;;;18.36;60.45
56514;BME280;62152;52.078;8.414;2023-11-22T01:14:53;101240.72;;;18.33;60.63
56514;BME280;62152;52.078;8.414;2023-11-22T01:18:56;101235.69;;;18.35;60.38
56514;BME280;62152;52.078;8.414;2023-11-22T01:22:57;101233.75;;;18.35;60.54
56514;BME280;62152;52.078;8.414;2023-11-22T01:26:58;101225.84;;;18.34;60.47
56514;BME280;62152;52.078;8.414;2023-11-22T01:30:59;101221.03;;;18.30;60.82
56514;BME280;62152;52.078;8.414;2023-11-22T01:35:03;101241.97;;;18.35;60.49
56514;BME280;62152;52.078;8.414;2023-11-22T01:39:04;101235.25;;;18.33;60.69
56514;BME280;62152;52.078;8.414;2023-11-22T01:43:05;101230.88;;;18.31;60.77
56514;BME280;62152;52.078;8.414;2023-11-22T01:47:06;101229.28;;;18.30;60.70
56514;BME280;62152;52.078;8.414;2023-11-22T01:51:09;101242.34;;;18.34;60.62
56514;BME280;62152;52.078;8.414;2023-11-22T01:55:12;101239.91;;;18.32;60.75
56514;BME280;62152;52.078;8.414;2023-11-22T01:59:13;101246.22;;;18.33;60.74
56514;BME280;62152;52.078;8.414;2023-11-22T02:03:15;101267.72;;;18.30;60.78
56514;BME280;62152;52.078;8.414;2023-11-22T02:07:18;101264.63;;;18.32;60.68
56514;BME280;62152;52.078;8.414;2023-11-22T02:11:20;101263.03;;;18.31;60.68
56514;BME280;62152;52.078;8.414;2023-11-22T02:15:20;101260.97;;;18.28;60.98
56514;BME280;62152;52.078;8.414;2023-11-22T02:19:21;101271.59;;;18.29;60.75
56514;BME280;62152;52.078;8.414;2023-11-22T02:23:25;101284.19;;;18.30;60.86
56514;BME280;62152;52.078;8.414;2023-11-22T02:27:25;101287.63;;;18.27;60.79
56514;BME280;62152;52.078;8.414;2023-11-22T02:31:26;101290.38;;;18.27;60.77
56514;BME280;62152;52.078;8.414;2023-11-22T02:35:27;101302.03;;;18.24;60.96
56514;BME280;62152;52.078;8.414;2023-11-22T02:39:41;101304.91;;;18.28;60.77
56514;BME280;62152;52.078;8.414;2023-11-22T02:43:47;101307.22;;;18.26;60.80
56514;BME280;62152;52.078;8.414;2023-11-22T02:47:48;101311.22;;;18.28;60.86
56514;BME280;62152;52.078;8.414;2023-11-22T02:51:49;101301.81;;;18.29;60.93
56514;BME280;62152;52.078;8.414;2023-11-22T02:55:52;101302.72;;;18.21;61.11
56514;BME280;62152;52.078;8.414;2023-11-22T02:59:53;101306.84;;;18.27;60.94
56514;BME280;62152;52.078;8.414;2023-11-22T03:03:54;101306.06;;;18.27;61.08
56514;BME280;62152;52.078;8.414;2023-11-22T03:07:55;101315.09;;;18.27;60.87
56514;BME280;62152;52.078;8.414;2023-11-22T03:11:58;101322.53;;;18.27;61.11
56514;BME280;62152;52.078;8.414;2023-11-22T03:15:59;101327.53;;;18.25;60.99
56514;BME280;62152;52.078;8.414;2023-11-22T03:20:00;101326.28;;;18.22;61.25
56514;BME280;62152;52.078;8.414;2023-11-22T03:24:01;101329.63;;;18.28;61.21
56514;BME280;62152;52.078;8.414;2023-11-22T03:28:04;101320.94;;;18.26;61.15
56514;BME280;62152;52.078;8.414;2023-11-22T03:32:06;101314.97;;;18.24;61.22
56514;BME280;62152;52.078;8.414;2023-11-22T03:36:07;101320.13;;;18.25;61.02
56514;BME280;62152;52.078;8.414;2023-11-22T03:40:09;101318.06;;;18.22;61.09
56514;BME280;62152;52.078;8.414;2023-11-22T03:44:14;101341.63;;;18.23;61.06
56514;BME280;62152;52.078;8.414;2023-11-22T03:48:14;101344.38;;;18.23;61.22
56514;BME280;62152;52.078;8.414;2023-11-22T03:52:15;101352.81;;;18.18;61.46
56514;BME280;62152;52.078;8.414;2023-11-22T03:56:16;101372.97;;;18.22;61.22
56514;BME280;62152;52.078;8.414;2023-11-22T04:00:20;101374.91;;;18.22;61.31
56514;BME280;62152;52.078;8.414;2023-11-22T04:04:21;101379.16;;;18.19;61.24
56514;BME280;62152;52.078;8.414;2023-11-22T04:08:23;101379.63;;;18.21;61.24
56514;BME280;62152;52.078;8.414;2023-11-22T04:12:24;101387.97;;;18.25;61.31
56514;BME280;62152;52.078;8.414;2023-11-22T04:16:27;101393.69;;;18.20;61.47
56514;BME280;62152;52.078;8.414;2023-11-22T04:20:28;101389.00;;;18.20;61.34
56514;BME280;62152;52.078;8.414;2023-11-22T04:24:29;101387.16;;;18.24;61.22
56514;BME280;62152;52.078;8.414;2023-11-22T04:28:30;101390.16;;;18.19;61.26
56514;BME280;62152;52.078;8.414;2023-11-22T04:32:33;101398.84;;;18.21;61.33
56514;BME280;62152;52.078;8.414;2023-11-22T04:36:34;101404.94;;;18.27;61.34
56514;BME280;62152;52.078;8.414;2023-11-22T04:40:35;101395.75;;;18.23;61.49
56514;BME280;62152;52.078;8.414;2023-11-22T04:44:36;101399.78;;;18.25;61.20
56514;BME280;62152;52.078;8.414;2023-11-22T04:48:39;101394.16;;;18.22;61.41
56514;BME280;62152;52.078;8.414;2023-11-22T04:52:40;101402.59;;;18.17;61.34
56514;BME280;62152;52.078;8.414;2023-11-22T04:56:41;101399.03;;;18.16;61.29
56514;BME280;62152;52.078;8.414;2023-11-22T05:00:41;101404.88;;;18.15;61.30
56514;BME280;62152;52.078;8.414;2023-11-22T05:04:45;101399.22;;;15.65;56.81
56514;BME280;62152;52.078;8.414;2023-11-22T05:08:46;101398.75;;;15.23;55.35
56514;BME280;62152;52.078;8.414;2023-11-22T05:12:46;101407.75;;;16.06;58.05
56514;BME280;62152;52.078;8.414;2023-11-22T05:16:47;101427.34;;;17.66;54.77
56514;BME280;62152;52.078;8.414;2023-11-22T05:20:51;101430.75;;;17.93;54.50
56514;BME280;62152;52.078;8.414;2023-11-22T05:24:51;101426.50;;;17.95;54.80
56514;BME280;62152;52.078;8.414;2023-11-22T05:28:52;101433.69;;;17.88;55.50
56514;BME280;62152;52.078;8.414;2023-11-22T05:32:53;101448.84;;;17.64;56.50
56514;BME280;62152;52.078;8.414;2023-11-22T05:36:56;101444.00;;;17.61;56.80
56514;BME280;62152;52.078;8.414;2023-11-22T05:40:57;101453.97;;;17.66;56.92
56514;BME280;62152;52.078;8.414;2023-11-22T05:44:58;101455.13;;;17.65;57.19
56514;BME280;62152;52.078;8.414;2023-11-22T05:48:59;101441.72;;;17.63;57.51
56514;BME280;62152;52.078;8.414;2023-11-22T05:53:02;101441.25;;;17.61;57.70
56514;BME280;62152;52.078;8.414;2023-11-22T05:57:04;101438.50;;;17.61;57.87
56514;BME280;62152;52.078;8.414;2023-11-22T06:01:05;101437.25;;;17.59;57.94
56514;BME280;62152;52.078;8.414;2023-11-22T06:05:06;101433.03;;;17.61;58.10
56514;BME280;62152;52.078;8.414;2023-11-22T06:09:10;101428.53;;;17.57;58.37
56514;BME280;62152;52.078;8.414;2023-11-22T06:13:11;101441.59;;;17.60;58.40
56514;BME280;62152;52.078;8.414;2023-11-22T06:17:12;101452.56;;;17.60;58.44
56514;BME280;62152;52.078;8.414;2023-11-22T06:21:12;101461.94;;;17.59;58.56
56514;BME280;62152;52.078;8.414;2023-11-22T06:25:16;101461.78;;;17.55;58.64
56514;BME280;62152;52.078;8.414;2023-11-22T06:29:17;101464.53;;;17.55;58.77
56514;BME280;62152;52.078;8.414;2023-11-22T06:33:17;101453.22;;;17.57;58.71
56514;BME280;62152;52.078;8.414;2023-11-22T06:37:18;101451.47;;;17.52;58.88
56514;BME280;62152;52.078;8.414;2023-11-22T06:41:22;101452.13;;;17.49;59.19
56514;BME280;62152;52.078;8.414;2023-11-22T06:45:22;101447.94;;;17.52;59.09
56514;BME280;62152;52.078;8.414;2023-11-22T06:49:23;101441.66;;;17.51;59.05
56514;BME280;62152;52.078;8.414;2023-11-22T06:53:24;101451.31;;;17.48;59.10
56514;BME280;62152;52.078;8.414;2023-11-22T06:57:27;101439.22;;;17.49;59.14
56514;BME280;62152;52.078;8.414;2023-11-22T07:01:28;101427.59;;;17.53;59.20
56514;BME280;62152;52.078;8.414;2023-11-22T07:05:29;101433.22;;;17.56;59.01
56514;BME280;62152;52.078;8.414;2023-11-22T07:09:30;101440.34;;;17.48;59.26
56514;BME280;62152;52.078;8.414;2023-11-22T07:13:33;101437.78;;;17.52;59.35
56514;BME280;62152;52.078;8.414;2023-11-22T07:17:34;101461.84;;;17.46;59.55
56514;BME280;62152;52.078;8.414;2023-11-22T07:21:35;101469.38;;;17.49;59.51
56514;BME280;62152;52.078;8.414;2023-11-22T07:25:35;101475.72;;;17.50;59.48
56514;BME280;62152;52.078;8.414;2023-11-22T07:29:39;101465.19;;;17.52;59.30
56514;BME280;62152;52.078;8.414;2023-11-22T07:33:40;101468.88;;;17.56;59.37
56514;BME280;62152;52.078;8.414;2023-11-22T07:37:41;101476.63;;;17.54;59.46
56514;BME280;62152;52.078;8.414;2023-11-22T07:41:42;101473.75;;;17.50;59.61
56514;BME280;62152;52.078;8.414;2023-11-22T07:45:45;101466.81;;;17.53;59.44
56514;BME280;62152;52.078;8.414;2023-11-22T07:49:46;101474.56;;;17.51;59.55
56514;BME280;62152;52.078;8.414;2023-11-22T07:53:47;101475.38;;;17.52;59.55
56514;BME280;62152;52.078;8.414;2023-11-22T07:57:48;101477.78;;;17.53;59.50
56514;BME280;62152;52.078;8.414;2023-11-22T08:01:51;101477.78;;;17.53;59.36
56514;BME280;62152;52.078;8.414;2023-11-22T08:05:52;101470.50;;;17.57;59.41
56514;BME280;62152;52.078;8.414;2023-11-22T08:09:53;101472.75;;;17.55;59.30
56514;BME280;62152;52.078;8.414;2023-11-22T08:13:54;101471.16;;;17.54;59.38
56514;BME280;62152;52.078;8.414;2023-11-22T08:17:58;101469.66;;;17.57;59.33
56514;BME280;62152;52.078;8.414;2023-11-22T08:21:59;101488.06;;;17.56;59.33
56514;BME280;62152;52.078;8.414;2023-11-22T08:26:00;101493.25;;;17.58;59.45
56514;BME280;62152;52.078;8.414;2023-11-22T08:30:01;101486.63;;;17.59;59.20
56514;BME280;62152;52.078;8.414;2023-11-22T08:34:04;101513.25;;;17.58;59.19
56514;BME280;62152;52.078;8.414;2023-11-22T08:38:05;101500.00;;;17.60;59.21
56514;BME280;62152;52.078;8.414;2023-11-22T08:42:06;101504.81;;;17.63;59.27
56514;BME280;62152;52.078;8.414;2023-11-22T08:46:07;101516.47;;;17.60;59.22
56514;BME280;62152;52.078;8.414;2023-11-22T08:50:11;101534.88;;;17.60;59.20
56514;BME280;62152;52.078;8.414;2023-11-22T08:54:12;101557.28;;;17.62;59.18
56514;BME280;62152;52.078;8.414;2023-11-22T08:58:12;101568.41;;;17.65;59.28
56514;BME280;62152;52.078;8.414;2023-11-22T09:02:13;101582.47;;;17.64;59.35
56514;BME280;62152;52.078;8.414;2023-11-22T09:06:17;101546.81;;;17.64;59.12
56514;BME280;62152;52.078;8.414;2023-11-22T09:10:18;101540.81;;;17.62;59.30
56514;BME280;62152;52.078;8.414;2023-11-22T09:14:19;101533.88;;;17.64;59.11
56514;BME280;62152;52.078;8.414;2023-11-22T09:18:19;101506.63;;;17.59;59.38
56514;BME280;62152;52.078;8.414;2023-11-22T09:22:23;101519.69;;;17.62;59.29
56514;BME280;62152;52.078;8.414;2023-11-22T09:26:24;101519.38;;;17.64;59.09
56514;BME280;62152;52.078;8.414;2023-11-22T09:30:26;101534.00;;;17.68;59.18
56514;BME280;62152;52.078;8.414;2023-11-22T09:34:28;101532.75;;;17.65;59.24
56514;BME280;62152;52.078;8.414;2023-11-22T09:38:31;101523.84;;;17.68;58.93
56514;BME280;62152;52.078;8.414;2023-11-22T09:42:32;101515.94;;;17.67;59.08
56514;BME280;62152;52.078;8.414;2023-11-22T09:46:33;101505.97;;;17.62;59.23
56514;BME280;62152;52.078;8.414;2023-11-22T09:50:40;101527.25;;;17.65;59.12
56514;BME280;62152;52.078;8.414;2023-11-22T09:54:46;101537.56;;;17.68;59.03
56514;BME280;62152;52.078;8.414;2023-11-22T09:58:52;101547.41;;;17.69;58.98
56514;BME280;62152;52.078;8.414;2023-11-22T10:02:53;101530.94;;;17.69;59.07
56514;BME280;62152;52.078;8.414;2023-11-22T10:06:55;101530.13;;;17.69;59.20
56514;BME280;62152;52.078;8.414;2023-11-22T10:11:00;101525.44;;;17.69;59.07
56514;BME280;62152;52.078;8.414;2023-11-22T10:15:11;101520.63;;;17.66;59.20
56514;BME280;62152;52.078;8.414;2023-11-22T10:19:12;101512.53;;;17.70;58.92
56514;BME280;62152;52.078;8.414;2023-11-22T10:23:14;101507.38;;;17.68;59.15
56514;BME280;62152;52.078;8.414;2023-11-22T10:27:18;101519.50;;;17.67;58.98
56514;BME280;62152;52.078;8.414;2023-11-22T10:31:19;101525.16;;;17.71;58.85
56514;BME280;62152;52.078;8.414;2023-11-22T10:35:21;101535.81;;;17.72;59.01
56514;BME280;62152;52.078;8.414;2023-11-22T10:39:22;101527.91;;;17.71;59.01
56514;BME280;62152;52.078;8.414;2023-11-22T10:43:28;101521.56;;;17.70;59.00
56514;BME280;62152;52.078;8.414;2023-11-22T10:47:30;101515.47;;;17.73;58.85
56514;BME280;62152;52.078;8.414;2023-11-22T10:51:33;101520.16;;;17.73;58.87
56514;BME280;62152;52.078;8.414;2023-11-22T10:55:35;101504.81;;;17.72;58.91
56514;BME280;62152;52.078;8.414;2023-11-22T10:59:47;101499.63;;;17.70;59.09
56514;BME280;62152;52.078;8.414;2023-11-22T11:04:01;101502.88;;;17.72;59.07
56514;BME280;62152;52.078;8.414;2023-11-22T11:08:08;101499.78;;;17.74;59.00
56514;BME280;62152;52.078;8.414;2023-11-22T11:12:09;101491.56;;;17.74;58.99
56514;BME280;62152;52.078;8.414;2023-11-22T11:16:12;101477.84;;;17.74;59.01
56514;BME280;62152;52.078;8.414;2023-11-22T11:20:16;101487.34;;;17.76;58.87
56514;BME280;62152;52.078;8.414;2023-11-22T11:24:17;101475.91;;;17.74;58.76
56514;BME280;62152;52.078;8.414;2023-11-22T11:28:18;101472.34;;;17.74;58.86
56514;BME280;62152;52.078;8.414;2023-11-22T11:32:32;101470.06;;;17.76;58.92
56514;BME280;62152;52.078;8.414;2023-11-22T11:36:33;101475.31;;;17.60;59.14
56514;BME280;62152;52.078;8.414;2023-11-22T11:40:34;101462.84;;;17.63;58.93
56514;BME280;62152;52.078;8.414;2023-11-22T11:44:36;101442.53;;;17.64;59.09
56514;BME280;62152;52.078;8.414;2023-11-22T11:48:42;101434.63;;;17.62;58.83
56514;BME280;62152;52.078;8.414;2023-11-22T11:52:43;101422.06;;;17.61;59.24
56514;BME280;62152;52.078;8.414;2023-11-22T11:56:44;101415.06;;;17.72;58.68
56514;BME280;62152;52.078;8.414;2023-11-22T12:00:45;101407.44;;;17.78;58.55
56514;BME280;62152;52.078;8.414;2023-11-22T12:04:48;101362.25;;;17.75;58.71
56514;BME280;62152;52.078;8.414;2023-11-22T12:08:49;101347.38;;;17.76;58.50
56514;BME280;62152;52.078;8.414;2023-11-22T12:12:50;101342.69;;;17.77;58.59
56514;BME280;62152;52.078;8.414;2023-11-22T12:16:51;101340.78;;;17.77;58.77
56514;BME280;62152;52.078;8.414;2023-11-22T12:20:59;101330.94;;;17.76;58.58
56514;BME280;62152;52.078;8.414;2023-11-22T12:25:00;101311.72;;;17.76;58.80
56514;BME280;62152;52.078;8.414;2023-11-22T12:29:01;101320.28;;;17.75;58.71
56514;BME280;62152;52.078;8.414;2023-11-22T12:33:03;101320.63;;;17.73;58.73
56514;BME280;62152;52.078;8.414;2023-11-22T12:37:07;101297.19;;;17.76;58.64
56514;BME280;62152;52.078;8.414;2023-11-22T12:41:08;101298.34;;;17.75;58.87
56514;BME280;62152;52.078;8.414;2023-11-22T12:45:18;101280.09;;;17.70;58.87
56514;BME280;62152;52.078;8.414;2023-11-22T12:49:19;101280.41;;;17.77;58.77
56514;BME280;62152;52.078;8.414;2023-11-22T12:53:23;101290.09;;;17.75;58.83
56514;BME280;62152;52.078;8.414;2023-11-22T12:57:24;101286.22;;;17.76;58.67
56514;BME280;62152;52.078;8.414;2023-11-22T13:01:25;101305.44;;;17.76;58.88
56514;BME280;62152;52.078;8.414;2023-11-22T13:05:26;101317.53;;;17.75;58.93
56514;BME280;62152;52.078;8.414;2023-11-22T13:09:29;101310.25;;;17.79;58.55
56514;BME280;62152;52.078;8.414;2023-11-22T13:13:30;101304.28;;;17.77;58.90
56514;BME280;62152;52.078;8.414;2023-11-22T13:17:31;101308.06;;;17.72;58.93
56514;BME280;62152;52.078;8.414;2023-11-22T13:21:32;101305.78;;;17.74;58.69
56514;BME280;62152;52.078;8.414;2023-11-22T13:25:35;101314.00;;;17.74;58.76
56514;BME280;62152;52.078;8.414;2023-11-22T13:29:36;101317.88;;;17.73;58.82
56514;BME280;62152;52.078;8.414;2023-11-22T13:33:37;101312.41;;;17.73;58.94
56514;BME280;62152;52.078;8.414;2023-11-22T13:37:38;101313.72;;;17.67;58.89
56514;BME280;62152;52.078;8.414;2023-11-22T13:41:41;101305.13;;;17.69;59.02
56514;BME280;62152;52.078;8.414;2023-11-22T13:45:42;101313.72;;;17.67;58.95
56514;BME280;62152;52.078;8.414;2023-11-22T13:49:43;101312.56;;;17.68;59.12
56514;BME280;62152;52.078;8.414;2023-11-22T13:53:43;101310.28;;;17.70;58.80
56514;BME280;62152;52.078;8.414;2023-11-22T13:57:47;101319.66;;;17.69;58.88
56514;BME280;62152;52.078;8.414;2023-11-22T14:01:47;101332.13;;;17.67;59.07
56514;BME280;62152;52.078;8.414;2023-11-22T14:05:48;101328.13;;;17.64;58.91
56514;BME280;62152;52.078;8.414;2023-11-22T14:09:49;101332.81;;;17.64;59.18
56514;BME280;62152;52.078;8.414;2023-11-22T14:13:52;101343.44;;;17.65;59.15
56514;BME280;62152;52.078;8.414;2023-11-22T14:17:53;101340.88;;;17.60;59.20
56514;BME280;62152;52.078;8.414;2023-11-22T14:21:54;101327.31;;;17.64;59.19
56514;BME280;62152;52.078;8.414;2023-11-22T14:25:55;101332.31;;;17.62;59.19
56514;BME280;62152;52.078;8.414;2023-11-22T14:29:58;101333.81;;;17.59;59.19
56514;BME280;62152;52.078;8.414;2023-11-22T14:33:59;101338.81;;;17.57;59.32
56514;BME280;62152;52.078;8.414;2023-11-22T14:38:00;101327.50;;;17.59;59.30
56514;BME280;62152;52.078;8.414;2023-11-22T14:42:01;101311.06;;;17.59;59.37
56514;BME280;62152;52.078;8.414;2023-11-22T14:46:05;101285.56;;;17.58;59.09
56514;BME280;62152;52.078;8.414;2023-11-22T14:50:07;101282.56;;;17.51;59.50
56514;BME280;62152;52.078;8.414;2023-11-22T14:54:08;101270.91;;;17.54;59.50
56514;BME280;62152;52.078;8.414;2023-11-22T14:58:09;101278.78;;;17.56;59.32
56514;BME280;62152;52.078;8.414;2023-11-22T15:02:12;101284.63;;;17.54;59.33
56514;BME280;62152;52.078;8.414;2023-11-22T15:06:13;101286.09;;;17.52;59.21
56514;BME280;62152;52.078;8.414;2023-11-22T15:10:14;101292.84;;;17.54;59.42
56514;BME280;62152;52.078;8.414;2023-11-22T15:14:14;101299.94;;;17.55;59.24
56514;BME280;62152;52.078;8.414;2023-11-22T15:18:18;101303.69;;;17.50;59.48
56514;BME280;62152;52.078;8.414;2023-11-22T15:22:19;101308.50;;;17.54;59.45
56514;BME280;62152;52.078;8.414;2023-11-22T15:26:21;101316.72;;;17.54;59.50
56514;BME280;62152;52.078;8.414;2023-11-22T15:30:22;101307.38;;;17.55;59.41
56514;BME280;62152;52.078;8.414;2023-11-22T15:34:25;101294.19;;;17.48;59.62
56514;BME280;62152;52.078;8.414;2023-11-22T15:38:26;101288.50;;;17.53;59.51
56514;BME280;62152;52.078;8.414;2023-11-22T15:42:27;101285.75;;;17.53;59.42
56514;BME280;62152;52.078;8.414;2023-11-22T15:46:28;101273.34;;;16.46;54.24
56514;BME280;62152;52.078;8.414;2023-11-22T15:50:34;101291.38;;;14.57;58.27
56514;BME280;62152;52.078;8.414;2023-11-22T15:54:35;101280.94;;;15.76;59.59
56514;BME280;62152;52.078;8.414;2023-11-22T15:58:35;101269.50;;;15.83;58.10
56514;BME280;62152;52.078;8.414;2023-11-22T16:02:36;101247.75;;;15.95;58.98
56514;BME280;62152;52.078;8.414;2023-11-22T16:06:40;101239.84;;;16.02;59.25
56514;BME280;62152;52.078;8.414;2023-11-22T16:10:41;101209.38;;;16.12;58.77
56514;BME280;62152;52.078;8.414;2023-11-22T16:14:41;101215.97;;;16.11;59.25
56514;BME280;62152;52.078;8.414;2023-11-22T16:18:42;101215.97;;;16.11;58.56
56514;BME280;62152;52.078;8.414;2023-11-22T16:22:46;101206.00;;;16.16;59.35
56514;BME280;62152;52.078;8.414;2023-11-22T16:26:47;101203.31;;;16.36;59.15
56514;BME280;62152;52.078;8.414;2023-11-22T16:30:48;101208.50;;;16.29;58.19
56514;BME280;62152;52.078;8.414;2023-11-22T16:34:49;101210.03;;;16.09;57.67
56514;BME280;62152;52.078;8.414;2023-11-22T16:38:52;101204.88;;;16.46;57.71
56514;BME280;62152;52.078;8.414;2023-11-22T16:42:53;101201.28;;;16.25;58.97
56514;BME280;62152;52.078;8.414;2023-11-22T16:46:54;101199.50;;;16.29;58.81
56514;BME280;62152;52.078;8.414;2023-11-22T16:50:54;101186.47;;;16.26;58.11
56514;BME280;62152;52.078;8.414;2023-11-22T16:54:58;101194.16;;;16.32;58.07
56514;BME280;62152;52.078;8.414;2023-11-22T16:58:59;101176.38;;;16.47;59.57
56514;BME280;62152;52.078;8.414;2023-11-22T17:03:00;101175.75;;;17.34;58.59
56514;BME280;62152;52.078;8.414;2023-11-22T17:07:01;101168.25;;;16.89;56.87
56514;BME280;62152;52.078;8.414;2023-11-22T17:11:04;101167.38;;;16.67;58.13
56514;BME280;62152;52.078;8.414;2023-11-22T17:15:07;101180.72;;;16.48;58.92
56514;BME280;62152;52.078;8.414;2023-11-22T17:19:08;101172.28;;;16.53;59.41
56514;BME280;62152;52.078;8.414;2023-11-22T17:23:09;101170.09;;;16.76;61.08
56514;BME280;62152;52.078;8.414;2023-11-22T17:27:12;101162.16;;;16.83;60.78
56514;BME280;62152;52.078;8.414;2023-11-22T17:31:13;101152.28;;;16.61;60.81
56514;BME280;62152;52.078;8.414;2023-11-22T17:35:14;101151.72;;;16.77;61.97
56514;BME280;62152;52.078;8.414;2023-11-22T17:39:15;101140.41;;;16.99;61.79
56514;BME280;62152;52.078;8.414;2023-11-22T17:43:18;101139.63;;;16.78;60.96
56514;BME280;62152;52.078;8.414;2023-11-22T17:47:19;101131.63;;;17.27;61.07
56514;BME280;62152;52.078;8.414;2023-11-22T17:51:20;101131.94;;;16.71;61.65
56514;BME280;62152;52.078;8.414;2023-11-22T17:55:20;101114.41;;;16.63;61.61
56514;BME280;62152;52.078;8.414;2023-11-22T17:59:24;101127.06;;;16.77;61.47
56514;BME280;62152;52.078;8.414;2023-11-22T18:03:25;101122.81;;;16.58;61.00
56514;BME280;62152;52.078;8.414;2023-11-22T18:07:25;101084.81;;;16.57;61.57
56514;BME280;62152;52.078;8.414;2023-11-22T18:11:26;101099.22;;;16.66;60.77
56514;BME280;62152;52.078;8.414;2023-11-22T18:15:30;101105.25;;;16.59;60.60
56514;BME280;62152;52.078;8.414;2023-11-22T18:19:30;101103.44;;;16.42;60.29
56514;BME280;62152;52.078;8.414;2023-11-22T18:23:31;101116.59;;;16.49;60.75
56514;BME280;62152;52.078;8.414;2023-11-22T18:27:32;101106.28;;;16.46;58.66
56514;BME280;62152;52.078;8.414;2023-11-22T18:31:36;101105.84;;;16.65;59.80
56514;BME280;62152;52.078;8.414;2023-11-22T18:35:36;101094.78;;;16.61;59.58
56514;BME280;62152;52.078;8.414;2023-11-22T18:39:37;101087.47;;;16.65;57.86
56514;BME280;62152;52.078;8.414;2023-11-22T18:43:38;101093.75;;;16.66;59.34
56514;BME280;62152;52.078;8.414;2023-11-22T18:47:42;101089.72;;;16.72;58.32
56514;BME280;62152;52.078;8.414;2023-11-22T18:51:43;101091.09;;;16.57;58.66
56514;BME280;62152;52.078;8.414;2023-11-22T18:55:44;101096.84;;;16.64;58.52
56514;BME280;62152;52.078;8.414;2023-11-22T18:59:44;101084.69;;;16.74;58.57
56514;BME280;62152;52.078;8.414;2023-11-22T19:03:48;101075.06;;;16.68;59.34
56514;BME280;62152;52.078;8.414;2023-11-22T19:07:49;101098.03;;;18.12;58.59
56514;BME280;62152;52.078;8.414;2023-11-22T19:11:50;101093.34;;;18.24;58.47
56514;BME280;62152;52.078;8.414;2023-11-22T19:15:50;101103.53;;;18.24;58.78
56514;BME280;62152;52.078;8.414;2023-11-22T19:19:54;101080.53;;;18.28;58.68
56514;BME280;62152;52.078;8.414;2023-11-22T19:23:55;101079.72;;;18.28;59.09
56514;BME280;62152;52.078;8.414;2023-11-22T19:27:55;101059.00;;;18.30;58.88
56514;BME280;62152;52.078;8.414;2023-11-22T19:31:56;101040.69;;;18.35;59.07
56514;BME280;62152;52.078;8.414;2023-11-22T19:35:59;101041.56;;;18.39;58.97
56514;BME280;62152;52.078;8.414;2023-11-22T19:40:00;101032.81;;;18.33;59.29
56514;BME280;62152;52.078;8.414;2023-11-22T19:44:01;101038.91;;;18.54;59.37
56514;BME280;62152;52.078;8.414;2023-11-22T19:48:02;101036.53;;;18.53;60.13
56514;BME280;62152;52.078;8.414;2023-11-22T19:52:06;101028.03;;;18.58;60.81
56514;BME280;62152;52.078;8.414;2023-11-22T19:56:07;101022.31;;;18.51;61.19
56514;BME280;62152;52.078;8.414;2023-11-22T20:00:09;101011.81;;;18.53;61.17
56514;BME280;62152;52.078;8.414;2023-11-22T20:04:13;101001.94;;;18.52;61.24
56514;BME280;62152;52.078;8.414;2023-11-22T20:08:16;100992.81;;;18.48;61.62
56514;BME280;62152;52.078;8.414;2023-11-22T20:12:17;100967.97;;;18.44;61.57
56514;BME280;62152;52.078;8.414;2023-11-22T20:16:18;100971.63;;;18.48;61.40
56514;BME280;62152;52.078;8.414;2023-11-22T20:20:19;100991.31;;;18.50;61.39
56514;BME280;62152;52.078;8.414;2023-11-22T20:24:22;100972.00;;;18.47;61.36
56514;BME280;62152;52.078;8.414;2023-11-22T20:28:23;100989.72;;;18.49;61.43
56514;BME280;62152;52.078;8.414;2023-11-22T20:32:24;100996.38;;;18.48;61.39
56514;BME280;62152;52.078;8.414;2023-11-22T20:36:24;100996.00;;;18.50;61.40
56514;BME280;62152;52.078;8.414;2023-11-22T20:40:28;100988.81;;;18.45;61.47
56514;BME280;62152;52.078;8.414;2023-11-22T20:44:29;100984.09;;;18.46;61.35
56514;BME280;62152;52.078;8.414;2023-11-22T20:48:29;100984.56;;;18.48;61.20
56514;BME280;62152;52.078;8.414;2023-11-22T20:52:30;100985.81;;;18.50;61.10
56514;BME280;62152;52.078;8.414;2023-11-22T20:56:33;101002.28;;;18.50;61.27
56514;BME280;62152;52.078;8.414;2023-11-22T21:00:34;101006.75;;;18.55;60.92
56514;BME280;62152;52.078;8.414;2023-11-22T21:04:35;100984.81;;;18.43;61.05